Time,TemperatureF,DewpointF,PressureIn,WindDirection,WindDirectionDegrees,WindSpeedMPH,WindSpeedGustMPH,Humidity,HourlyPrecipIn,Conditions,Clouds,dailyrainin,SolarRadiationWatts/m^2,SoftwareType,DateUTC
2013-01-24 00:00:00,14.0,11.0,-100.00,WNW,292,0.0,-999.0,87,-99.99,,,-99.99,0.000000,,2013-01-24 05:00:00,
2013-01-24 00:43:00,14.0,11.0,-100.00,WNW,292,0.0,-999.0,87,-99.99,,,-99.99,0.000000,,2013-01-24 05:43:00,
2013-01-24 00:53:00,14.0,11.0,-100.00,WNW,292,0.0,-999.0,87,-99.99,,,-99.99,0.000000,,2013-01-24 05:53:00,
2013-01-24 01:00:00,13.0,10.0,-100.00,SSW,202,3.0,-999.0,88,-99.99,,,-99.99,0.000000,,2013-01-24 06:00:00,
2013-01-24 01:42:00,13.0,10.0,-100.00,SSW,202,3.0,-999.0,88,-99.99,,,-99.99,0.000000,,2013-01-24 06:42:00,
2013-01-24 01:53:00,13.0,10.0,-100.00,SSW,202,3.0,-999.0,88,-99.99,,,-99.99,0.000000,,2013-01-24 06:53:00,
2013-01-24 02:00:00,11.0,8.0,-100.00,WSW,247,5.0,-999.0,86,-99.99,,,-99.99,0.000000,,2013-01-24 07:00:00,
2013-01-24 02:43:00,11.0,8.0,-100.00,WSW,247,5.0,-999.0,86,-99.99,,,-99.99,0.000000,,2013-01-24 07:43:00,
2013-01-24 02:53:00,11.0,8.0,-100.00,WSW,247,5.0,-999.0,86,-99.99,,,-99.99,0.000000,,2013-01-24 07:53:00,
2013-01-24 03:00:00,11.0,7.0,-100.00,SW,225,8.0,-999.0,85,-99.99,,,-99.99,0.000000,,2013-01-24 08:00:00,
2013-01-24 03:43:00,11.0,7.0,-100.00,SW,225,8.0,-999.0,85,-99.99,,,-99.99,0.000000,,2013-01-24 08:43:00,
2013-01-24 03:53:00,11.0,7.0,-100.00,SW,225,8.0,-999.0,85,-99.99,,,-99.99,0.000000,,2013-01-24 08:53:00,
2013-01-24 04:00:00,9.0,6.0,-100.00,WSW,247,5.0,-999.0,84,-99.99,,,-99.99,0.000000,,2013-01-24 09:00:00,
2013-01-24 04:43:00,9.0,6.0,-100.00,WSW,247,5.0,-999.0,84,-99.99,,,-99.99,0.000000,,2013-01-24 09:43:00,
2013-01-24 04:53:00,9.0,6.0,-100.00,WSW,247,5.0,-999.0,84,-99.99,,,-99.99,0.000000,,2013-01-24 09:53:00,
2013-01-24 05:00:00,9.0,5.0,-100.00,West,270,5.0,-999.0,83,-99.99,,,-99.99,0.000000,,2013-01-24 10:00:00,
2013-01-24 05:43:00,9.0,5.0,-100.00,West,270,5.0,-999.0,83,-99.99,,,-99.99,0.000000,,2013-01-24 10:43:00,
2013-01-24 05:53:00,9.0,5.0,-100.00,West,270,5.0,-999.0,83,-99.99,,,-99.99,0.000000,,2013-01-24 10:53:00,
2013-01-24 06:00:00,6.0,2.0,-100.00,WNW,292,6.0,-999.0,83,-99.99,,,-99.99,0.000000,,2013-01-24 11:00:00,
2013-01-24 06:43:00,6.0,2.0,-100.00,WNW,292,6.0,-999.0,83,-99.99,,,-99.99,0.000000,,2013-01-24 11:43:00,
2013-01-24 06:53:00,6.0,2.0,-100.00,WNW,292,6.0,-999.0,83,-99.99,,,-99.99,0.000000,,2013-01-24 11:53:00,
2013-01-24 07:00:00,7.0,3.0,-100.00,SSW,202,7.0,-999.0,83,-99.99,,,-99.99,0.000000,,2013-01-24 12:00:00,
2013-01-24 07:43:00,7.0,3.0,-100.00,SSW,202,7.0,-999.0,83,-99.99,,,-99.99,0.000000,,2013-01-24 12:43:00,
2013-01-24 07:53:00,7.0,3.0,-100.00,SSW,202,7.0,-999.0,83,-99.99,,,-99.99,0.000000,,2013-01-24 12:53:00,
2013-01-24 09:00:00,7.0,2.0,-100.00,ESE,112,6.0,-999.0,81,-99.99,,,-99.99,59.160000,,2013-01-24 14:00:00,
2013-01-24 09:43:00,7.0,2.0,-100.00,ESE,112,6.0,-999.0,81,-99.99,,,-99.99,59.160000,,2013-01-24 14:43:00,
2013-01-24 09:54:00,7.0,2.0,-100.00,ESE,112,6.0,-999.0,81,-99.99,,,-99.99,59.160000,,2013-01-24 14:54:00,
2013-01-24 10:00:00,11.0,5.0,-100.00,NE,45,8.0,-999.0,77,-99.99,,,-99.99,201.839996,,2013-01-24 15:00:00,
2013-01-24 10:43:00,11.0,5.0,-100.00,NE,45,8.0,-999.0,77,-99.99,,,-99.99,201.839996,,2013-01-24 15:43:00,
2013-01-24 10:53:00,11.0,5.0,-100.00,NE,45,8.0,-999.0,77,-99.99,,,-99.99,201.839996,,2013-01-24 15:53:00,
2013-01-24 11:00:00,15.0,8.0,-100.00,NNE,22,8.0,-999.0,72,-99.99,,,-99.99,408.320007,,2013-01-24 16:00:00,
2013-01-24 11:43:00,15.0,8.0,-100.00,NNE,22,8.0,-999.0,72,-99.99,,,-99.99,408.320007,,2013-01-24 16:43:00,
2013-01-24 12:00:00,18.0,8.0,-100.00,ENE,67,8.0,-999.0,63,-99.99,,,-99.99,516.200012,,2013-01-24 17:00:00,
2013-01-24 12:43:00,18.0,8.0,-100.00,ENE,67,8.0,-999.0,63,-99.99,,,-99.99,516.200012,,2013-01-24 17:43:00,
2013-01-24 12:53:00,18.0,8.0,-100.00,ENE,67,8.0,-999.0,63,-99.99,,,-99.99,516.200012,,2013-01-24 17:53:00,
2013-01-24 13:00:00,20.0,7.0,-100.00,SSE,157,6.0,-999.0,54,-99.99,,,-99.99,542.880005,,2013-01-24 18:00:00,
2013-01-24 13:43:00,20.0,7.0,-100.00,SSE,157,6.0,-999.0,54,-99.99,,,-99.99,542.880005,,2013-01-24 18:43:00,
2013-01-24 13:53:00,20.0,7.0,-100.00,SSE,157,6.0,-999.0,54,-99.99,,,-99.99,542.880005,,2013-01-24 18:53:00,
2013-01-24 14:00:00,21.0,4.0,-100.00,South,180,5.0,-999.0,47,-99.99,,,-99.99,515.039978,,2013-01-24 19:00:00,
2013-01-24 14:42:00,21.0,4.0,-100.00,South,180,5.0,-999.0,47,-99.99,,,-99.99,515.039978,,2013-01-24 19:42:00,
2013-01-24 14:53:00,21.0,4.0,-100.00,South,180,5.0,-999.0,47,-99.99,,,-99.99,515.039978,,2013-01-24 19:53:00,
2013-01-24 15:00:00,20.0,4.0,-100.00,WSW,247,5.0,-999.0,48,-99.99,,,-99.99,448.920013,,2013-01-24 20:00:00,
2013-01-24 15:33:00,20.0,4.0,-100.00,WSW,247,5.0,-999.0,48,-99.99,,,-99.99,448.920013,,2013-01-24 20:33:00,
2013-01-24 15:43:00,20.0,4.0,-100.00,WSW,247,5.0,-999.0,48,-99.99,,,-99.99,448.920013,,2013-01-24 20:43:00,
2013-01-24 15:53:00,20.0,4.0,-100.00,WSW,247,5.0,-999.0,48,-99.99,,,-99.99,448.920013,,2013-01-24 20:53:00,
2013-01-24 16:00:00,20.0,1.0,-100.00,SSW,202,5.0,-999.0,42,-99.99,,,-99.99,303.920013,,2013-01-24 21:00:00,
2013-01-24 16:43:00,20.0,1.0,-100.00,SSW,202,5.0,-999.0,42,-99.99,,,-99.99,303.920013,,2013-01-24 21:43:00,
2013-01-24 16:53:00,20.0,1.0,-100.00,SSW,202,5.0,-999.0,42,-99.99,,,-99.99,303.920013,,2013-01-24 21:53:00,
2013-01-24 17:00:00,18.0,1.0,-100.00,ESE,112,2.0,-999.0,46,-99.99,,,-99.99,95.120003,,2013-01-24 22:00:00,
2013-01-24 17:42:00,18.0,1.0,-100.00,ESE,112,2.0,-999.0,46,-99.99,,,-99.99,95.120003,,2013-01-24 22:42:00,
2013-01-24 17:53:00,18.0,1.0,-100.00,ESE,112,2.0,-999.0,46,-99.99,,,-99.99,95.120003,,2013-01-24 22:53:00,
2013-01-24 18:00:00,15.0,2.0,-100.00,NE,45,0.0,-999.0,57,-99.99,,,-99.99,12.760000,,2013-01-24 23:00:00,
2013-01-24 18:43:00,15.0,2.0,-100.00,NE,45,0.0,-999.0,57,-99.99,,,-99.99,12.760000,,2013-01-24 23:43:00,
2013-01-24 18:52:00,15.0,2.0,-100.00,NE,45,0.0,-999.0,57,-99.99,,,-99.99,12.760000,,2013-01-24 23:52:00,
2013-01-24 19:00:00,11.0,2.0,-100.00,ESE,112,0.0,-999.0,66,-99.99,,,-99.99,0.000000,,2013-01-25 00:00:00,
2013-01-24 19:42:00,11.0,2.0,-100.00,ESE,112,0.0,-999.0,66,-99.99,,,-99.99,0.000000,,2013-01-25 00:42:00,
2013-01-24 19:53:00,11.0,2.0,-100.00,ESE,112,0.0,-999.0,66,-99.99,,,-99.99,0.000000,,2013-01-25 00:53:00,
2013-01-24 20:00:00,10.0,4.0,-100.00,SSE,157,0.0,-999.0,75,-99.99,,,-99.99,0.000000,,2013-01-25 01:00:00,
2013-01-24 20:43:00,10.0,4.0,-100.00,SSE,157,0.0,-999.0,75,-99.99,,,-99.99,0.000000,,2013-01-25 01:43:00,
2013-01-24 20:52:00,10.0,4.0,-100.00,SSE,157,0.0,-999.0,75,-99.99,,,-99.99,0.000000,,2013-01-25 01:52:00,
2013-01-24 21:00:00,10.0,4.0,-100.00,SSE,157,0.0,-999.0,78,-99.99,,,-99.99,0.000000,,2013-01-25 02:00:00,
2013-01-24 21:43:00,10.0,4.0,-100.00,SSE,157,0.0,-999.0,78,-99.99,,,-99.99,0.000000,,2013-01-25 02:43:00,
2013-01-24 21:53:00,10.0,4.0,-100.00,SSE,157,0.0,-999.0,78,-99.99,,,-99.99,0.000000,,2013-01-25 02:53:00,
2013-01-24 22:00:00,11.0,6.0,-100.00,SSE,157,0.0,-999.0,77,-99.99,,,-99.99,0.000000,,2013-01-25 03:00:00,
2013-01-24 22:42:00,11.0,6.0,-100.00,SSE,157,0.0,-999.0,77,-99.99,,,-99.99,0.000000,,2013-01-25 03:42:00,
2013-01-24 22:53:00,11.0,6.0,-100.00,SSE,157,0.0,-999.0,77,-99.99,,,-99.99,0.000000,,2013-01-25 03:53:00,
2013-01-24 23:00:00,13.0,6.0,-100.00,East,90,0.0,-999.0,72,-99.99,,,-99.99,0.000000,,2013-01-25 04:00:00,
2013-01-24 23:42:00,13.0,6.0,-100.00,East,90,0.0,-999.0,72,-99.99,,,-99.99,0.000000,,2013-01-25 04:42:00,
2013-01-24 23:52:00,13.0,6.0,-100.00,East,90,0.0,-999.0,72,-99.99,,,-99.99,0.000000,,2013-01-25 04:52:00,